Archival Weather

Chicago O'Hare International

Chicago, Illinois (KORD)

Report from: Thursday, December 29, 2022 3:51 PM CST
Current time: Friday, June 21, 2024 2:27 AM CDT

Current weather – Weather history – Daily summaries
Weather forecast

Temperature13.9°C (57.0°F)
Dew point10.6°C (51.1°F)
Winds 12 kts (6.2 m/s, 13.8 mph) South (170°)
Wind gusts 21 kts (10.8 m/s, 24.2 mph)
Visibility10 mi. (16.1 km)
Clouds Ceiling: Broken clouds 2,000 ft. (610 m)
Broken clouds 2,900 ft. (884 m)
Altimeter29.79 in.Hg (1009 mB)
Relative humidity81 %
Density altitude194 ft. (59 m)
Sea-level pressure100.9 kPa (1009 mB, 29.80 in.Hg)
Remarks System requires maintenance
Automated weather observing station with precipitation discriminator
Flight conditions Marginal Visual Meteorological Conditions
Raw dataKORD 292151Z 17012G21KT 10SM BKN020 BKN029 14/11 A2979 RMK AO2 SLP090 T01390106 $
An error has occurred. This application may no longer respond until reloaded. Reload 🗙